Time;durP1;ratioP1;P1;durP2;ratioP2;P2;SDS_P1;SDS_P2;PMS_P1;PMS_P2;Temp;Humidity;BMP_temperature;BMP_pressure;BME280_temperature;BME280_humidity;BME280_pressure;Samples;Min_cycle;Max_cycle;Signal;HPM_P1;HPM_P2
2021/10/03 00:02:02;;;;;;;0.00;0.00;;;16.30;99.90;;;;;;5013761;28;20029;-72
2021/10/03 00:04:31;;;;;;;0.57;0.10;;;16.20;99.90;;;;;;5014115;28;20483;-72
2021/10/03 00:06:59;;;;;;;0.85;0.00;;;16.20;99.90;;;;;;5014044;28;20117;-72
2021/10/03 00:09:25;;;;;;;0.63;0.00;;;16.20;99.90;;;;;;5013401;28;20050;-72
2021/10/03 00:11:51;;;;;;;0.20;0.00;;;16.20;99.90;;;;;;5013725;28;20450;-72
2021/10/03 00:14:20;;;;;;;0.52;0.00;;;16.20;99.90;;;;;;5012444;28;20040;-72
2021/10/03 00:16:47;;;;;;;0.00;0.00;;;16.20;99.90;;;;;;5013872;28;20030;-72
2021/10/03 00:19:14;;;;;;;0.50;0.00;;;16.20;99.90;;;;;;5014018;28;20092;-72
2021/10/03 00:21:41;;;;;;;1.08;0.00;;;16.20;99.90;;;;;;5013691;28;20030;-72
2021/10/03 00:24:07;;;;;;;0.10;0.00;;;16.20;99.90;;;;;;5013757;28;20479;-72
2021/10/03 00:26:34;;;;;;;1.08;0.00;;;16.20;99.90;;;;;;5013724;28;20060;-72
2021/10/03 00:29:00;;;;;;;0.20;0.00;;;16.20;99.90;;;;;;5012664;28;20037;-73
2021/10/03 00:31:26;;;;;;;0.00;0.00;;;16.20;99.90;;;;;;5012373;28;20034;-75
2021/10/03 00:33:53;;;;;;;1.35;0.00;;;16.20;99.90;;;;;;5012190;28;20041;-75
2021/10/03 00:36:19;;;;;;;0.00;0.00;;;16.20;99.90;;;;;;5013724;28;20034;-75
2021/10/03 00:38:44;;;;;;;0.10;0.00;;;16.30;99.90;;;;;;5013298;28;20037;-76
2021/10/03 00:41:10;;;;;;;0.05;0.00;;;16.30;99.90;;;;;;5013492;28;20048;-76
2021/10/03 00:43:36;;;;;;;0.32;0.05;;;16.30;99.90;;;;;;5013251;28;20033;-76
2021/10/03 00:46:02;;;;;;;0.00;0.00;;;16.30;99.90;;;;;;5012067;28;20084;-76
2021/10/03 00:48:28;;;;;;;0.20;0.00;;;16.30;99.90;;;;;;5013649;28;20018;-75
2021/10/03 00:50:53;;;;;;;0.08;0.08;;;16.30;99.90;;;;;;5013119;28;20080;-75
2021/10/03 00:53:19;;;;;;;0.00;0.00;;;16.30;99.90;;;;;;5013415;28;20082;-75
2021/10/03 00:55:45;;;;;;;0.00;0.00;;;16.30;99.90;;;;;;5013245;28;20022;-75
2021/10/03 00:58:11;;;;;;;0.20;0.00;;;16.30;99.90;;;;;;5011977;28;20026;-75
2021/10/03 01:00:38;;;;;;;0.25;0.00;;;16.30;99.90;;;;;;5013721;28;20041;-75
2021/10/03 01:03:06;;;;;;;0.00;0.00;;;16.30;99.90;;;;;;5012014;28;20383;-75
2021/10/03 01:05:32;;;;;;;0.20;0.00;;;16.30;99.90;;;;;;5013505;28;20056;-75
2021/10/03 01:07:59;;;;;;;2.17;0.00;;;16.30;99.90;;;;;;5011792;28;20475;-75
2021/10/03 01:10:26;;;;;;;1.08;0.00;;;16.30;99.90;;;;;;5012380;28;20022;-75
2021/10/03 01:12:57;;;;;;;0.00;0.00;;;16.40;99.90;;;;;;5013165;28;20101;-75
2021/10/03 01:15:25;;;;;;;0.20;0.13;;;16.30;99.90;;;;;;5011856;28;20026;-75
2021/10/03 01:17:51;;;;;;;0.13;0.00;;;16.30;99.90;;;;;;5011753;28;20446;-75
2021/10/03 01:20:17;;;;;;;1.90;0.00;;;16.20;99.90;;;;;;5014149;28;20018;-75
2021/10/03 01:22:43;;;;;;;0.88;0.00;;;16.20;99.90;;;;;;5016939;28;20030;-75
2021/10/03 01:25:10;;;;;;;0.32;0.00;;;16.20;99.90;;;;;;5015397;28;20093;-75
2021/10/03 01:27:37;;;;;;;0.00;0.00;;;16.10;99.90;;;;;;5016642;28;20030;-75
2021/10/03 01:30:06;;;;;;;0.57;0.00;;;16.10;99.90;;;;;;5016547;28;20014;-75
2021/10/03 01:32:32;;;;;;;3.70;0.20;;;16.10;99.90;;;;;;5016577;28;20026;-75
2021/10/03 01:34:57;;;;;;;0.20;0.00;;;16.10;99.90;;;;;;5016632;28;20079;-75
2021/10/03 01:37:24;;;;;;;1.08;0.00;;;15.90;99.90;;;;;;5016594;28;20033;-75
2021/10/03 01:39:50;;;;;;;2.90;0.00;;;15.90;99.90;;;;;;5015140;28;20075;-75
2021/10/03 01:42:16;;;;;;;0.10;0.10;;;15.90;99.90;;;;;;5016325;28;20483;-75
2021/10/03 01:44:42;;;;;;;0.80;0.32;;;15.80;99.90;;;;;;5015253;28;20083;-75
2021/10/03 01:47:07;;;;;;;0.00;0.00;;;15.80;99.90;;;;;;5015128;28;20029;-75
2021/10/03 01:49:33;;;;;;;0.73;0.00;;;15.70;99.90;;;;;;5014932;28;20178;-75
2021/10/03 01:51:59;;;;;;;0.77;0.00;;;15.60;99.90;;;;;;5015319;28;20021;-75
2021/10/03 01:54:25;;;;;;;1.13;0.00;;;15.60;99.90;;;;;;5016157;28;20088;-74
2021/10/03 01:56:50;;;;;;;3.20;0.00;;;15.50;99.90;;;;;;5016184;28;20045;-74
2021/10/03 01:59:17;;;;;;;0.40;0.00;;;15.50;99.90;;;;;;5016055;28;20063;-74
2021/10/03 02:01:44;;;;;;;1.23;0.00;;;15.40;99.90;;;;;;5014695;28;20394;-74
2021/10/03 02:04:14;;;;;;;0.13;0.00;;;15.50;99.90;;;;;;5016456;28;20014;-74
2021/10/03 02:06:49;;;;;;;1.08;0.00;;;15.40;99.90;;;;;;5016034;28;20475;-74
2021/10/03 02:09:17;;;;;;;1.05;0.00;;;15.30;99.90;;;;;;5014586;28;20022;-74
2021/10/03 02:11:49;;;;;;;0.82;0.08;;;15.30;99.90;;;;;;5015878;28;20024;-74
2021/10/03 02:14:16;;;;;;;1.98;0.00;;;15.20;99.90;;;;;;5016375;28;20022;-74
2021/10/03 02:16:42;;;;;;;1.40;0.00;;;15.20;99.90;;;;;;5014495;28;20029;-74
2021/10/03 02:19:08;;;;;;;0.20;0.00;;;15.20;99.90;;;;;;5015857;28;20033;-75
2021/10/03 02:21:35;;;;;;;0.15;0.00;;;15.20;99.90;;;;;;5015946;28;20034;-75
2021/10/03 02:24:01;;;;;;;0.40;0.00;;;15.20;99.90;;;;;;5015769;28;20037;-74
2021/10/03 02:26:27;;;;;;;0.85;0.00;;;15.20;99.90;;;;;;5014324;28;20121;-74
2021/10/03 02:28:53;;;;;;;1.70;0.00;;;15.20;99.90;;;;;;5014302;28;20041;-75
2021/10/03 02:31:18;;;;;;;0.22;0.00;;;15.20;99.90;;;;;;5015873;28;20076;-75
2021/10/03 02:33:49;;;;;;;0.10;0.00;;;15.20;99.90;;;;;;5015844;28;20030;-75
2021/10/03 02:36:17;;;;;;;0.40;0.00;;;15.20;99.90;;;;;;5015666;28;20029;-75
2021/10/03 02:38:44;;;;;;;0.55;0.00;;;15.30;99.90;;;;;;5014115;28;20017;-74
2021/10/03 02:41:11;;;;;;;0.90;0.00;;;15.30;99.90;;;;;;5014075;28;20029;-75
2021/10/03 02:43:39;;;;;;;0.75;0.00;;;15.30;99.90;;;;;;5015291;28;20022;-75
2021/10/03 02:46:05;;;;;;;0.47;0.00;;;15.20;99.90;;;;;;5015265;28;20088;-75
2021/10/03 02:48:34;;;;;;;1.02;0.00;;;15.20;99.90;;;;;;5013868;28;20025;-75
2021/10/03 02:50:59;;;;;;;2.08;0.10;;;15.20;99.90;;;;;;5015378;28;20419;-75
2021/10/03 02:53:27;;;;;;;1.65;0.38;;;15.00;99.90;;;;;;5014916;28;20033;-75
2021/10/03 02:55:53;;;;;;;2.30;0.05;;;15.00;99.90;;;;;;5014945;28;20105;-75
2021/10/03 02:58:19;;;;;;;2.10;0.00;;;14.90;99.90;;;;;;5013720;28;20080;-75
2021/10/03 03:00:47;;;;;;;2.17;0.10;;;14.80;99.90;;;;;;5013653;28;20022;-75
2021/10/03 03:03:13;;;;;;;0.10;0.00;;;14.80;99.90;;;;;;5015302;28;20471;-74
2021/10/03 03:05:38;;;;;;;0.38;0.00;;;14.70;99.90;;;;;;5014782;28;20097;-76
2021/10/03 03:08:06;;;;;;;1.92;0.00;;;14.70;99.90;;;;;;5015093;28;20060;-75
2021/10/03 03:10:32;;;;;;;0.77;0.00;;;14.70;99.90;;;;;;5014738;28;20014;-75
2021/10/03 03:12:58;;;;;;;2.05;0.00;;;14.80;99.90;;;;;;5014798;28;20475;-75
2021/10/03 03:15:24;;;;;;;0.38;0.00;;;14.60;99.90;;;;;;5013508;28;20075;-74
2021/10/03 03:17:50;;;;;;;0.10;0.00;;;14.50;99.90;;;;;;5013539;28;20111;-74
2021/10/03 03:20:16;;;;;;;2.20;0.00;;;14.50;99.90;;;;;;5014535;28;20022;-74
2021/10/03 03:22:41;;;;;;;1.98;0.00;;;14.50;99.90;;;;;;5015105;28;20026;-74
2021/10/03 03:25:10;;;;;;;0.38;0.08;;;14.40;99.90;;;;;;5013556;28;20100;-74
2021/10/03 03:27:36;;;;;;;0.00;0.00;;;14.40;99.90;;;;;;5014786;28;20018;-74
2021/10/03 03:30:02;;;;;;;0.55;0.00;;;14.40;99.90;;;;;;5014410;28;20479;-74
2021/10/03 03:32:28;;;;;;;0.10;0.00;;;14.30;99.90;;;;;;5014461;28;20026;-74
2021/10/03 03:34:55;;;;;;;0.88;0.10;;;14.20;99.90;;;;;;5014317;28;20026;-74
2021/10/03 03:37:20;;;;;;;1.17;0.13;;;14.20;99.90;;;;;;5013095;28;20037;-74
2021/10/03 03:39:46;;;;;;;0.52;0.00;;;14.20;99.90;;;;;;5014290;28;20483;-74
2021/10/03 03:42:12;;;;;;;1.65;0.00;;;14.20;99.90;;;;;;5014069;28;20116;-74
2021/10/03 03:44:37;;;;;;;2.08;0.00;;;14.10;99.90;;;;;;5013702;28;20026;-74
2021/10/03 03:47:03;;;;;;;1.45;0.10;;;14.10;99.90;;;;;;5014171;28;20109;-74
2021/10/03 03:49:29;;;;;;;3.25;0.10;;;14.00;99.90;;;;;;5014302;28;20079;-74
2021/10/03 03:51:55;;;;;;;1.85;0.00;;;14.00;99.90;;;;;;5014435;28;20072;-74
2021/10/03 03:54:20;;;;;;;0.32;0.00;;;14.10;99.90;;;;;;5014001;28;20077;-74
2021/10/03 03:56:46;;;;;;;1.85;0.10;;;14.10;99.90;;;;;;5013998;28;20034;-73
2021/10/03 03:59:11;;;;;;;1.55;0.00;;;14.00;99.90;;;;;;5014483;28;20053;-73
2021/10/03 04:01:38;;;;;;;0.40;0.00;;;14.10;99.90;;;;;;5012650;28;20018;-73
2021/10/03 04:04:04;;;;;;;1.48;0.00;;;14.10;99.90;;;;;;5013868;28;20534;-74
2021/10/03 04:06:30;;;;;;;0.05;0.00;;;14.00;99.90;;;;;;5012766;28;20172;-73
2021/10/03 04:08:56;;;;;;;2.00;0.00;;;14.00;99.90;;;;;;5013852;28;20116;-73
2021/10/03 04:11:21;;;;;;;0.00;0.00;;;14.00;99.90;;;;;;5013907;28;20022;-74
2021/10/03 04:13:47;;;;;;;1.17;0.00;;;14.00;99.90;;;;;;5013767;28;20032;-74
2021/10/03 04:16:12;;;;;;;0.70;0.00;;;13.90;99.90;;;;;;5013693;28;20088;-74
2021/10/03 04:18:38;;;;;;;0.20;0.00;;;13.90;99.90;;;;;;5013716;28;20029;-74
2021/10/03 04:21:03;;;;;;;0.35;0.20;;;13.90;99.90;;;;;;5012489;28;20026;-75
2021/10/03 04:23:29;;;;;;;0.90;0.00;;;13.90;99.90;;;;;;5012486;28;20030;-74
2021/10/03 04:25:55;;;;;;;0.00;0.00;;;13.90;99.90;;;;;;5012501;28;20056;-74
2021/10/03 04:28:24;;;;;;;0.00;0.00;;;14.00;99.90;;;;;;5013739;28;20101;-74
2021/10/03 04:30:49;;;;;;;2.92;0.00;;;13.90;99.90;;;;;;5013621;28;20018;-75
2021/10/03 04:33:15;;;;;;;0.40;0.00;;;13.90;99.90;;;;;;5013615;28;20121;-75
2021/10/03 04:35:41;;;;;;;3.10;0.00;;;13.90;99.90;;;;;;5012290;28;20022;-75
2021/10/03 04:38:06;;;;;;;1.60;0.00;;;13.90;99.90;;;;;;5013646;28;20018;-74
2021/10/03 04:40:32;;;;;;;1.42;0.10;;;13.90;99.90;;;;;;5013616;28;20022;-74
2021/10/03 04:42:58;;;;;;;0.75;0.00;;;13.90;99.90;;;;;;5013452;28;20033;-74
2021/10/03 04:45:25;;;;;;;0.13;0.00;;;13.80;99.90;;;;;;5013468;28;20022;-74
2021/10/03 04:47:50;;;;;;;0.20;0.00;;;13.90;99.90;;;;;;5013552;28;20025;-74
2021/10/03 04:50:16;;;;;;;0.30;0.00;;;13.90;99.90;;;;;;5013485;28;20571;-74
2021/10/03 04:52:43;;;;;;;1.17;0.00;;;13.80;99.90;;;;;;5013678;28;20105;-74
2021/10/03 04:55:10;;;;;;;0.30;0.00;;;13.90;99.90;;;;;;5014302;28;20084;-74
2021/10/03 04:57:36;;;;;;;0.05;0.00;;;13.90;99.90;;;;;;5016005;28;20109;-74
2021/10/03 05:00:08;;;;;;;3.92;0.00;;;13.90;99.90;;;;;;5017159;28;20049;-74
2021/10/03 05:02:33;;;;;;;0.25;0.00;;;13.90;99.90;;;;;;5015825;28;20494;-74
2021/10/03 05:04:59;;;;;;;0.55;0.00;;;13.90;99.90;;;;;;5017217;28;20229;-74
2021/10/03 05:07:25;;;;;;;0.38;0.00;;;14.00;99.90;;;;;;5015928;28;20018;-74
2021/10/03 05:09:51;;;;;;;0.73;0.00;;;13.90;99.90;;;;;;5015897;28;20109;-74
2021/10/03 05:12:17;;;;;;;0.38;0.00;;;14.00;99.90;;;;;;5015746;28;20025;-74
2021/10/03 05:14:43;;;;;;;0.65;0.00;;;14.00;99.90;;;;;;5015770;28;20028;-74
2021/10/03 05:17:08;;;;;;;0.05;0.00;;;13.90;99.90;;;;;;5016939;28;20386;-74
2021/10/03 05:19:34;;;;;;;0.20;0.00;;;13.90;99.90;;;;;;5016865;28;20022;-73
2021/10/03 05:22:00;;;;;;;0.60;0.00;;;13.90;99.90;;;;;;5015566;28;20026;-74
2021/10/03 05:24:26;;;;;;;0.17;0.00;;;13.90;99.90;;;;;;5016846;28;20390;-73
2021/10/03 05:26:52;;;;;;;3.20;0.00;;;13.80;99.90;;;;;;5016752;28;20018;-74
2021/10/03 05:29:17;;;;;;;1.45;0.00;;;13.80;99.90;;;;;;5016700;28;20077;-74
2021/10/03 05:31:43;;;;;;;1.17;0.15;;;13.80;99.90;;;;;;5016713;28;20025;-74
2021/10/03 05:34:10;;;;;;;2.85;0.40;;;13.70;99.90;;;;;;5015302;28;20412;-74
2021/10/03 05:36:35;;;;;;;2.38;0.00;;;13.60;99.90;;;;;;5017103;28;20076;-74
2021/10/03 05:39:02;;;;;;;1.10;0.00;;;13.60;99.90;;;;;;5016711;28;20414;-73
2021/10/03 05:41:28;;;;;;;1.55;0.00;;;13.50;99.90;;;;;;5016733;28;20076;-73
2021/10/03 05:43:55;;;;;;;3.92;0.00;;;13.50;99.90;;;;;;5016484;28;20026;-73
2021/10/03 05:46:21;;;;;;;0.70;0.15;;;13.50;99.90;;;;;;5015035;28;20116;-74
2021/10/03 05:48:47;;;;;;;2.97;0.05;;;13.40;99.90;;;;;;5016593;28;20033;-74
2021/10/03 05:51:13;;;;;;;3.97;0.00;;;13.40;99.90;;;;;;5016372;28;20483;-74
2021/10/03 05:53:39;;;;;;;1.13;0.00;;;13.40;99.90;;;;;;5015021;28;20041;-74
2021/10/03 05:56:05;;;;;;;0.20;0.00;;;13.30;99.90;;;;;;5015089;28;20030;-74
2021/10/03 05:58:31;;;;;;;1.67;0.00;;;13.30;99.90;;;;;;5016446;28;20079;-74
2021/10/03 06:00:56;;;;;;;2.35;0.00;;;13.30;99.90;;;;;;5014765;28;20438;-74
2021/10/03 06:03:22;;;;;;;0.35;0.00;;;13.30;99.90;;;;;;5014962;28;20068;-74
2021/10/03 06:05:47;;;;;;;0.30;0.00;;;13.30;99.90;;;;;;5014588;28;20022;-74
2021/10/03 06:08:17;;;;;;;1.25;0.00;;;13.20;99.90;;;;;;5015701;28;20025;-74
2021/10/03 06:10:44;;;;;;;0.50;0.00;;;13.20;99.90;;;;;;5015977;28;20104;-75
2021/10/03 06:13:10;;;;;;;2.55;0.10;;;13.20;99.90;;;;;;5016045;28;20034;-75
2021/10/03 06:15:39;;;;;;;2.85;0.13;;;13.20;99.90;;;;;;5015097;28;20046;-76
2021/10/03 06:18:05;;;;;;;;;;;13.20;99.90;;;;;;5016161;28;20029;-76
2021/10/03 06:20:32;;;;;;;3.20;0.52;;;13.20;99.90;;;;;;5015867;28;19909;-76
2021/10/03 06:22:57;;;;;;;4.35;0.00;;;13.20;99.90;;;;;;5015688;28;20053;-76
2021/10/03 06:25:23;;;;;;;1.55;0.28;;;13.20;99.90;;;;;;5015661;28;20018;-76
2021/10/03 06:27:48;;;;;;;1.67;0.00;;;13.20;99.90;;;;;;5015494;28;20029;-76
2021/10/03 06:30:14;;;;;;;2.63;0.38;;;13.20;99.90;;;;;;5015899;28;20081;-76
2021/10/03 06:32:40;;;;;;;3.40;0.00;;;13.20;99.90;;;;;;5014263;28;20372;-76
2021/10/03 06:35:06;;;;;;;2.92;0.00;;;13.20;99.90;;;;;;5016011;28;20026;-76
2021/10/03 06:37:32;;;;;;;1.85;0.10;;;13.10;99.90;;;;;;5015406;28;20022;-76
2021/10/03 06:39:57;;;;;;;2.55;0.00;;;13.10;99.90;;;;;;5015708;28;20363;-77
2021/10/03 06:42:23;;;;;;;0.98;0.00;;;13.10;99.90;;;;;;5015186;28;20022;-76
2021/10/03 06:44:49;;;;;;;0.75;0.00;;;13.00;99.90;;;;;;5013994;28;20402;-76
2021/10/03 06:47:15;;;;;;;0.47;0.05;;;13.00;99.90;;;;;;5015249;28;20029;-76
2021/10/03 06:49:42;;;;;;;2.63;0.00;;;13.00;99.90;;;;;;5016210;28;20033;-76
2021/10/03 06:52:12;;;;;;;3.30;0.00;;;13.00;99.90;;;;;;5015307;28;20570;-76
2021/10/03 06:54:38;;;;;;;0.00;0.00;;;13.00;99.90;;;;;;5015043;28;20041;-76
2021/10/03 06:57:04;;;;;;;8.27;0.38;;;12.90;99.90;;;;;;5015375;28;20065;-76
2021/10/03 06:59:33;;;;;;;4.00;0.00;;;12.90;99.90;;;;;;5014951;28;20085;-76
2021/10/03 07:02:03;;;;;;;;;;;13.00;99.90;;;;;;5015359;28;20033;-76
2021/10/03 07:04:31;;;;;;;4.65;0.20;;;13.00;99.90;;;;;;5013724;28;19905;-76
2021/10/03 07:07:00;;;;;;;2.00;0.22;;;13.00;99.90;;;;;;5014868;28;20026;-76
2021/10/03 07:09:26;;;;;;;0.73;0.10;;;13.00;99.90;;;;;;5014982;28;20120;-77
2021/10/03 07:11:52;;;;;;;2.60;0.00;;;13.00;99.90;;;;;;5013714;28;20021;-78
2021/10/03 07:14:18;;;;;;;2.30;0.00;;;12.90;99.90;;;;;;5013603;28;20486;-78
2021/10/03 07:16:43;;;;;;;0.93;0.00;;;12.90;99.90;;;;;;5014889;28;20040;-78
2021/10/03 07:19:09;;;;;;;0.25;0.00;;;12.90;99.90;;;;;;5014385;28;20041;-78
2021/10/03 07:21:34;;;;;;;1.15;0.00;;;12.90;99.90;;;;;;5013400;28;20061;-77
2021/10/03 07:24:00;;;;;;;0.30;0.10;;;12.90;99.90;;;;;;5013404;28;20396;-78
2021/10/03 07:26:26;;;;;;;3.22;0.25;;;12.90;99.90;;;;;;5013442;28;20025;-77
2021/10/03 07:28:52;;;;;;;0.25;0.00;;;12.90;99.90;;;;;;5014669;28;20029;-78
2021/10/03 07:31:19;;;;;;;3.10;0.45;;;12.90;99.90;;;;;;5013518;28;20056;-78
2021/10/03 07:33:45;;;;;;;0.00;0.00;;;12.90;99.90;;;;;;5014897;28;20022;-77
2021/10/03 07:36:10;;;;;;;1.77;0.00;;;12.90;99.90;;;;;;5014433;28;20104;-78
2021/10/03 07:38:36;;;;;;;1.13;0.25;;;12.90;99.90;;;;;;5014805;28;20060;-78
2021/10/03 07:41:02;;;;;;;2.83;0.65;;;12.90;99.90;;;;;;5014275;28;20041;-77
2021/10/03 07:43:28;;;;;;;0.57;0.00;;;12.90;99.90;;;;;;5013080;28;20022;-77
2021/10/03 07:45:53;;;;;;;0.05;0.00;;;13.00;99.90;;;;;;5014503;28;20045;-77
2021/10/03 07:48:19;;;;;;;1.27;0.00;;;13.00;99.90;;;;;;5013102;28;20486;-78
2021/10/03 07:50:44;;;;;;;0.20;0.00;;;13.00;99.90;;;;;;5014392;28;20024;-78
2021/10/03 07:53:10;;;;;;;1.65;0.00;;;13.00;99.90;;;;;;5014529;28;20068;-78
2021/10/03 07:55:35;;;;;;;1.55;0.47;;;13.10;99.90;;;;;;5014313;28;20101;-78
2021/10/03 07:58:05;;;;;;;0.15;0.00;;;13.00;99.90;;;;;;5014308;28;20096;-78
2021/10/03 08:00:31;;;;;;;0.70;0.10;;;13.10;99.90;;;;;;5014173;28;20105;-77
2021/10/03 08:02:57;;;;;;;1.10;0.00;;;13.10;99.90;;;;;;5014037;28;20395;-77
2021/10/03 08:05:23;;;;;;;0.05;0.00;;;13.10;99.90;;;;;;5014920;28;20026;-78
2021/10/03 08:07:49;;;;;;;4.75;0.35;;;13.10;99.90;;;;;;5012968;28;20026;-78
2021/10/03 08:10:14;;;;;;;0.30;0.00;;;13.10;99.90;;;;;;5014357;28;20112;-78
2021/10/03 08:12:40;;;;;;;1.65;0.00;;;13.10;99.90;;;;;;5014365;28;20538;-78
2021/10/03 08:15:06;;;;;;;0.20;0.10;;;13.10;99.90;;;;;;5014285;28;20030;-78
2021/10/03 08:17:32;;;;;;;2.80;0.35;;;13.20;99.90;;;;;;5014019;28;20034;-75
2021/10/03 08:19:57;;;;;;;1.27;0.47;;;13.20;99.90;;;;;;5014696;28;20034;-77
2021/10/03 08:22:23;;;;;;;3.40;0.28;;;13.20;99.90;;;;;;5013707;28;20053;-76
2021/10/03 08:24:48;;;;;;;0.25;0.00;;;13.20;99.90;;;;;;5013809;28;20022;-74
2021/10/03 08:27:14;;;;;;;3.72;0.05;;;13.20;99.90;;;;;;5013847;28;20022;-78
2021/10/03 08:29:40;;;;;;;0.50;0.08;;;13.30;99.90;;;;;;5014962;28;20030;-78
2021/10/03 08:32:06;;;;;;;1.55;0.00;;;13.30;99.90;;;;;;5012638;28;20034;-77
2021/10/03 08:34:31;;;;;;;1.60;0.00;;;13.30;99.90;;;;;;5012792;28;20024;-78
2021/10/03 08:36:57;;;;;;;3.47;0.10;;;13.40;99.90;;;;;;5013384;28;20029;-78
2021/10/03 08:39:22;;;;;;;1.25;0.00;;;13.40;99.90;;;;;;5013422;28;20395;-78
2021/10/03 08:41:48;;;;;;;0.20;0.00;;;13.40;99.90;;;;;;5012881;28;20129;-78
2021/10/03 08:44:14;;;;;;;4.20;0.00;;;13.50;99.90;;;;;;5014404;28;20366;-78
2021/10/03 08:46:41;;;;;;;1.58;0.00;;;13.50;99.90;;;;;;5017871;28;20133;-78
2021/10/03 08:49:07;;;;;;;2.95;0.10;;;13.50;99.90;;;;;;5013612;28;20164;-78
2021/10/03 08:51:37;;;;;;;1.65;0.00;;;13.50;99.90;;;;;;5012487;28;20061;-78
2021/10/03 08:54:04;;;;;;;0.20;0.20;;;13.60;99.90;;;;;;5016065;28;20037;-78
2021/10/03 08:56:30;;;;;;;0.00;0.00;;;13.50;99.90;;;;;;5017846;28;20030;-79
2021/10/03 08:58:56;;;;;;;1.00;0.20;;;13.50;99.90;;;;;;5017301;28;20026;-76
2021/10/03 09:01:22;;;;;;;0.10;0.00;;;13.50;99.90;;;;;;5014899;28;20022;-79
2021/10/03 09:03:49;;;;;;;0.00;0.00;;;13.60;99.90;;;;;;5013848;28;20570;-74
2021/10/03 09:06:15;;;;;;;3.00;0.08;;;13.60;99.90;;;;;;5012080;28;20491;-75
2021/10/03 09:08:43;;;;;;;0.82;0.00;;;13.60;99.90;;;;;;5013335;28;20026;-74
2021/10/03 09:11:11;;;;;;;0.10;0.00;;;13.70;99.90;;;;;;5013354;28;20026;-75
2021/10/03 09:13:37;;;;;;;2.75;0.00;;;13.70;99.90;;;;;;5013649;28;20057;-75
2021/10/03 09:16:26;;;;;;;1.25;0.20;;;13.80;99.90;;;;;;5013522;28;20038;-74
2021/10/03 09:18:59;;;;;;;0.50;0.00;;;13.80;99.90;;;;;;5015167;28;20056;-74
2021/10/03 09:21:33;;;;;;;0.63;0.00;;;13.90;99.90;;;;;;5019125;28;20030;-73
2021/10/03 09:24:08;;;;;;;1.02;0.03;;;13.90;99.90;;;;;;5017172;28;20104;-74
2021/10/03 09:26:35;;;;;;;0.00;0.00;;;13.90;99.90;;;;;;5017486;28;20475;-74
2021/10/03 09:29:22;;;;;;;0.57;0.00;;;14.00;99.90;;;;;;5018177;28;20071;-74
2021/10/03 09:32:05;;;;;;;1.80;0.00;;;14.00;99.90;;;;;;5019310;28;20018;-74
2021/10/03 09:34:31;;;;;;;0.17;0.00;;;14.10;99.90;;;;;;5019206;28;20034;-73
2021/10/03 09:36:58;;;;;;;0.63;0.00;;;14.20;99.90;;;;;;5017524;28;20082;-74
2021/10/03 09:39:24;;;;;;;1.60;0.30;;;14.20;99.90;;;;;;5017670;28;20022;-75
2021/10/03 09:41:49;;;;;;;0.95;0.43;;;14.30;99.90;;;;;;5019148;28;20451;-74
2021/10/03 09:44:16;;;;;;;0.85;0.00;;;14.40;99.90;;;;;;5021418;28;20410;-75
2021/10/03 09:46:49;;;;;;;1.58;0.00;;;14.30;99.90;;;;;;5020381;28;20018;-74
2021/10/03 09:49:27;;;;;;;0.68;0.00;;;14.30;99.90;;;;;;5020809;28;20022;-74
2021/10/03 09:51:53;;;;;;;;;;;14.30;99.90;;;;;;5021110;28;20364;-73
2021/10/03 09:54:21;;;;;;;1.20;0.00;;;14.30;99.90;;;;;;5021454;28;20358;-74
2021/10/03 09:56:48;;;;;;;0.20;0.00;;;14.30;99.90;;;;;;5020919;28;20570;-74
2021/10/03 09:59:14;;;;;;;0.75;0.00;;;14.20;99.90;;;;;;5019321;28;20482;-74
2021/10/03 10:01:44;;;;;;;0.95;0.10;;;14.10;99.90;;;;;;5020496;28;20025;-73
2021/10/03 10:04:11;;;;;;;1.08;0.00;;;14.10;99.90;;;;;;5019949;28;20021;-74
2021/10/03 10:06:38;;;;;;;1.75;0.00;;;14.10;99.90;;;;;;5019316;28;20486;-75
2021/10/03 10:09:11;;;;;;;1.77;0.35;;;14.10;99.90;;;;;;5020358;28;20053;-74
2021/10/03 10:11:52;;;;;;;0.75;0.00;;;14.10;99.90;;;;;;5020602;28;20026;-73
2021/10/03 10:14:27;;;;;;;0.70;0.00;;;14.20;99.90;;;;;;5020423;28;20053;-72
2021/10/03 10:16:57;;;;;;;1.40;0.10;;;14.30;99.90;;;;;;5020018;28;20026;-72
2021/10/03 10:19:29;;;;;;;0.30;0.00;;;14.30;99.90;;;;;;5020811;28;20014;-73
2021/10/03 10:22:14;;;;;;;0.30;0.00;;;14.30;99.90;;;;;;5020053;28;20029;-73
2021/10/03 10:24:47;;;;;;;0.10;0.00;;;14.30;99.90;;;;;;5020348;28;20081;-73
2021/10/03 10:27:19;;;;;;;3.47;0.00;;;14.40;99.90;;;;;;5020887;28;20076;-73
2021/10/03 10:29:49;;;;;;;1.75;0.25;;;14.40;99.90;;;;;;5019049;28;20022;-73
2021/10/03 10:32:15;;;;;;;0.95;0.00;;;14.50;99.90;;;;;;5019987;28;20510;-73
2021/10/03 10:35:09;;;;;;;1.00;0.00;;;14.50;99.90;;;;;;5020103;28;20018;-73
2021/10/03 10:37:55;;;;;;;2.60;0.00;;;14.60;99.90;;;;;;5020546;28;20017;-73
2021/10/03 10:40:23;;;;;;;1.30;0.00;;;14.70;99.90;;;;;;5008183;28;20125;-73
2021/10/03 10:42:51;;;;;;;0.75;0.00;;;14.80;99.90;;;;;;5019921;28;20030;-73
2021/10/03 10:45:41;;;;;;;4.43;0.65;;;14.90;99.90;;;;;;5019707;28;20025;-74
2021/10/03 10:48:10;;;;;;;0.77;0.00;;;14.90;99.90;;;;;;5020290;28;20455;-74
2021/10/03 10:50:48;;;;;;;2.33;0.00;;;14.90;99.90;;;;;;5020601;28;20022;-75
2021/10/03 10:53:27;;;;;;;;;;;14.80;99.90;;;;;;5020425;28;20034;-74
2021/10/03 10:56:18;;;;;;;2.78;0.10;;;14.70;99.90;;;;;;5019352;28;19905;-72
2021/10/03 10:58:50;;;;;;;1.17;0.00;;;14.60;99.90;;;;;;5019505;28;20018;-72
2021/10/03 11:01:34;;;;;;;1.02;0.00;;;14.60;99.90;;;;;;5019033;28;20053;-72
2021/10/03 11:04:20;;;;;;;1.50;0.00;;;14.60;99.90;;;;;;5019452;28;20303;-73
2021/10/03 11:06:46;;;;;;;1.42;0.00;;;14.60;99.90;;;;;;5019446;28;20022;-73
2021/10/03 11:09:14;;;;;;;1.88;0.00;;;14.60;99.90;;;;;;5019061;28;20069;-73
2021/10/03 11:11:58;;;;;;;3.00;0.00;;;14.60;99.90;;;;;;5018809;28;20044;-73
2021/10/03 11:14:26;;;;;;;1.67;0.00;;;14.50;99.90;;;;;;5019646;28;20037;-74
2021/10/03 11:17:03;;;;;;;3.50;0.30;;;14.50;99.90;;;;;;5018894;28;20041;-73
2021/10/03 11:19:42;;;;;;;1.30;0.08;;;14.50;99.90;;;;;;5019297;28;20444;-74
2021/10/03 11:22:14;;;;;;;1.98;0.00;;;14.40;99.90;;;;;;5018272;28;20033;-73
2021/10/03 11:24:43;;;;;;;2.08;0.00;;;14.40;99.90;;;;;;5017514;28;20018;-73
2021/10/03 11:27:15;;;;;;;3.00;0.47;;;14.50;99.90;;;;;;5019163;28;20489;-74
2021/10/03 11:29:46;;;;;;;2.83;0.13;;;14.60;99.90;;;;;;5019137;28;20022;-74
2021/10/03 11:32:17;;;;;;;1.13;0.00;;;14.60;99.90;;;;;;5018908;28;20033;-73
2021/10/03 11:34:47;;;;;;;1.25;0.00;;;14.60;99.90;;;;;;5018148;28;20026;-73
2021/10/03 11:37:26;;;;;;;1.45;0.00;;;14.60;99.90;;;;;;5018020;28;20478;-71
2021/10/03 11:39:58;;;;;;;0.10;0.00;;;14.60;99.90;;;;;;5018190;28;20072;-72
2021/10/03 11:42:30;;;;;;;3.40;0.10;;;14.60;99.90;;;;;;5018894;28;20033;-72
2021/10/03 11:45:01;;;;;;;0.82;0.00;;;14.50;99.90;;;;;;5017998;28;20022;-72
2021/10/03 11:47:37;;;;;;;0.52;0.10;;;14.40;99.90;;;;;;5018404;28;20022;-74
2021/10/03 11:50:03;;;;;;;1.17;0.00;;;14.30;99.90;;;;;;5018473;28;20041;-74
2021/10/03 11:52:32;;;;;;;1.17;0.00;;;14.30;99.90;;;;;;5018870;28;20041;-73
2021/10/03 11:55:11;;;;;;;;;;;14.30;99.90;;;;;;5018978;28;20037;-72
2021/10/03 11:57:43;;;;;;;3.42;0.32;;;14.20;99.90;;;;;;5017284;28;20374;-72
2021/10/03 12:00:25;;;;;;;0.28;0.00;;;14.20;99.90;;;;;;5015870;28;20096;-75
2021/10/03 12:02:55;;;;;;;1.27;0.08;;;14.20;99.90;;;;;;5017133;28;20032;-72
2021/10/03 12:05:29;;;;;;;3.40;0.00;;;14.00;99.90;;;;;;5016793;28;20022;-72
2021/10/03 12:08:09;;;;;;;0.90;0.10;;;13.90;99.90;;;;;;5018471;28;20045;-75
2021/10/03 12:10:49;;;;;;;10.73;0.65;;;13.90;99.90;;;;;;5014260;28;20161;-73
2021/10/03 12:13:27;;;;;;;0.90;0.10;;;13.90;99.90;;;;;;5013830;28;20028;-75
2021/10/03 12:16:03;;;;;;;1.90;0.10;;;13.90;99.90;;;;;;5013918;28;20045;-75
2021/10/03 12:18:28;;;;;;;0.52;0.10;;;13.90;99.90;;;;;;5015898;28;20434;-75
2021/10/03 12:20:56;;;;;;;1.30;0.00;;;13.80;99.90;;;;;;5012549;28;20113;-75
2021/10/03 12:23:38;;;;;;;0.10;0.00;;;13.80;99.90;;;;;;5015343;28;20038;-75
2021/10/03 12:26:28;;;;;;;0.63;0.00;;;13.80;99.90;;;;;;5013298;28;20045;-73
2021/10/03 12:28:55;;;;;;;3.13;0.00;;;13.70;99.90;;;;;;5013327;28;20058;-73
2021/10/03 12:31:47;;;;;;;0.70;0.00;;;13.60;99.90;;;;;;5012077;28;20502;-71
2021/10/03 12:34:15;;;;;;;1.15;0.30;;;13.60;99.90;;;;;;5013305;28;20033;-73
2021/10/03 12:36:42;;;;;;;0.10;0.00;;;13.50;99.90;;;;;;5013509;28;20042;-73
2021/10/03 12:39:08;;;;;;;3.15;0.13;;;13.50;99.90;;;;;;5013005;28;20026;-73
2021/10/03 12:41:34;;;;;;;0.60;0.00;;;13.40;99.90;;;;;;5012738;28;20049;-71
2021/10/03 12:44:00;;;;;;;0.00;0.00;;;13.40;99.90;;;;;;5013603;28;20030;-71
2021/10/03 12:46:26;;;;;;;0.52;0.00;;;13.40;99.90;;;;;;5013486;28;20045;-71
2021/10/03 12:48:53;;;;;;;0.63;0.00;;;13.40;99.90;;;;;;5013188;28;20022;-72
2021/10/03 12:51:20;;;;;;;0.65;0.00;;;13.40;99.90;;;;;;5013130;28;20037;-72
2021/10/03 12:53:47;;;;;;;0.25;0.00;;;13.40;99.90;;;;;;5013059;28;20048;-72